sensor_id;sensor_type;location;lat;lon;timestamp;temperature;humidity
5392;DHT22;2719;53.624;9.786;2023-02-28T00:00:36;6.50;99.90
5392;DHT22;2719;53.624;9.786;2023-02-28T00:03:03;6.50;99.90
5392;DHT22;2719;53.624;9.786;2023-02-28T00:05:31;6.50;99.90
5392;DHT22;2719;53.624;9.786;2023-02-28T00:07:57;6.50;99.90
5392;DHT22;2719;53.624;9.786;2023-02-28T00:10:27;6.50;99.90
5392;DHT22;2719;53.624;9.786;2023-02-28T00:12:59;6.50;99.90
5392;DHT22;2719;53.624;9.786;2023-02-28T00:15:26;6.50;99.90
5392;DHT22;2719;53.624;9.786;2023-02-28T00:17:53;6.50;99.90
5392;DHT22;2719;53.624;9.786;2023-02-28T00:20:20;6.50;99.90
5392;DHT22;2719;53.624;9.786;2023-02-28T00:22:48;6.50;99.90
5392;DHT22;2719;53.624;9.786;2023-02-28T00:25:17;6.50;99.90
5392;DHT22;2719;53.624;9.786;2023-02-28T00:27:44;6.50;99.90
5392;DHT22;2719;53.624;9.786;2023-02-28T00:30:15;6.50;99.90
5392;DHT22;2719;53.624;9.786;2023-02-28T00:32:42;6.50;99.90
5392;DHT22;2719;53.624;9.786;2023-02-28T00:35:09;6.50;99.90
5392;DHT22;2719;53.624;9.786;2023-02-28T00:37:36;6.50;99.90
5392;DHT22;2719;53.624;9.786;2023-02-28T00:40:05;6.50;99.90
5392;DHT22;2719;53.624;9.786;2023-02-28T00:42:32;6.50;99.90
5392;DHT22;2719;53.624;9.786;2023-02-28T00:44:59;6.40;99.90
5392;DHT22;2719;53.624;9.786;2023-02-28T00:47:27;6.50;99.90
5392;DHT22;2719;53.624;9.786;2023-02-28T00:49:54;6.50;99.90
5392;DHT22;2719;53.624;9.786;2023-02-28T00:52:20;6.50;99.90
5392;DHT22;2719;53.624;9.786;2023-02-28T00:54:47;6.50;99.90
5392;DHT22;2719;53.624;9.786;2023-02-28T00:57:14;6.40;99.90
5392;DHT22;2719;53.624;9.786;2023-02-28T00:59:41;6.40;99.90
5392;DHT22;2719;53.624;9.786;2023-02-28T01:02:07;6.40;99.90
5392;DHT22;2719;53.624;9.786;2023-02-28T01:04:35;6.40;99.90
5392;DHT22;2719;53.624;9.786;2023-02-28T01:07:02;6.40;99.90
5392;DHT22;2719;53.624;9.786;2023-02-28T01:09:29;6.40;99.90
5392;DHT22;2719;53.624;9.786;2023-02-28T01:11:56;6.40;99.90
5392;DHT22;2719;53.624;9.786;2023-02-28T01:14:22;6.40;99.90
5392;DHT22;2719;53.624;9.786;2023-02-28T01:16:49;6.40;99.90
5392;DHT22;2719;53.624;9.786;2023-02-28T01:19:17;6.40;99.90
5392;DHT22;2719;53.624;9.786;2023-02-28T01:21:45;6.40;99.90
5392;DHT22;2719;53.624;9.786;2023-02-28T01:24:11;6.40;99.90
5392;DHT22;2719;53.624;9.786;2023-02-28T01:26:38;6.40;99.90
5392;DHT22;2719;53.624;9.786;2023-02-28T01:29:04;6.40;99.90
5392;DHT22;2719;53.624;9.786;2023-02-28T01:31:31;6.30;99.90
5392;DHT22;2719;53.624;9.786;2023-02-28T01:33:58;6.30;99.90
5392;DHT22;2719;53.624;9.786;2023-02-28T01:36:25;6.30;99.90
5392;DHT22;2719;53.624;9.786;2023-02-28T01:38:53;6.30;99.90
5392;DHT22;2719;53.624;9.786;2023-02-28T01:41:22;6.30;99.90
5392;DHT22;2719;53.624;9.786;2023-02-28T01:43:57;6.30;99.90
5392;DHT22;2719;53.624;9.786;2023-02-28T01:46:25;6.30;99.90
5392;DHT22;2719;53.624;9.786;2023-02-28T01:48:54;6.30;99.90
5392;DHT22;2719;53.624;9.786;2023-02-28T01:51:26;6.30;99.90
5392;DHT22;2719;53.624;9.786;2023-02-28T01:53:59;6.30;99.90
5392;DHT22;2719;53.624;9.786;2023-02-28T01:56:29;6.30;99.90
5392;DHT22;2719;53.624;9.786;2023-02-28T01:58:57;6.30;99.90
5392;DHT22;2719;53.624;9.786;2023-02-28T02:01:26;6.30;99.90
5392;DHT22;2719;53.624;9.786;2023-02-28T02:03:55;6.30;99.90
5392;DHT22;2719;53.624;9.786;2023-02-28T02:06:23;6.20;99.90
5392;DHT22;2719;53.624;9.786;2023-02-28T02:08:51;6.20;99.90
5392;DHT22;2719;53.624;9.786;2023-02-28T02:11:21;6.20;99.90
5392;DHT22;2719;53.624;9.786;2023-02-28T02:16:52;6.20;99.90
5392;DHT22;2719;53.624;9.786;2023-02-28T02:19:39;6.10;99.90
5392;DHT22;2719;53.624;9.786;2023-02-28T02:22:21;6.10;99.90
5392;DHT22;2719;53.624;9.786;2023-02-28T02:25:11;6.10;99.90
5392;DHT22;2719;53.624;9.786;2023-02-28T02:28:15;6.00;99.90
5392;DHT22;2719;53.624;9.786;2023-02-28T02:34:19;6.10;99.90
5392;DHT22;2719;53.624;9.786;2023-02-28T02:36:49;6.00;99.90
5392;DHT22;2719;53.624;9.786;2023-02-28T02:39:21;6.00;99.90
5392;DHT22;2719;53.624;9.786;2023-02-28T02:41:53;6.00;99.90
5392;DHT22;2719;53.624;9.786;2023-02-28T02:44:22;6.00;99.90
5392;DHT22;2719;53.624;9.786;2023-02-28T02:46:52;6.00;99.90
5392;DHT22;2719;53.624;9.786;2023-02-28T02:49:24;5.90;99.90
5392;DHT22;2719;53.624;9.786;2023-02-28T02:51:53;5.80;99.90
5392;DHT22;2719;53.624;9.786;2023-02-28T02:54:23;5.80;99.90
5392;DHT22;2719;53.624;9.786;2023-02-28T02:56:56;5.80;99.90
5392;DHT22;2719;53.624;9.786;2023-02-28T02:59:24;5.80;99.90
5392;DHT22;2719;53.624;9.786;2023-02-28T03:01:55;5.80;99.90
5392;DHT22;2719;53.624;9.786;2023-02-28T03:04:27;5.80;99.90
5392;DHT22;2719;53.624;9.786;2023-02-28T03:06:56;5.80;99.90
5392;DHT22;2719;53.624;9.786;2023-02-28T03:09:24;5.80;99.90
5392;DHT22;2719;53.624;9.786;2023-02-28T03:11:54;5.80;99.90
5392;DHT22;2719;53.624;9.786;2023-02-28T03:14:30;5.90;99.90
5392;DHT22;2719;53.624;9.786;2023-02-28T03:17:16;5.80;99.90
5392;DHT22;2719;53.624;9.786;2023-02-28T03:20:06;5.80;99.90
5392;DHT22;2719;53.624;9.786;2023-02-28T03:22:50;5.80;99.90
5392;DHT22;2719;53.624;9.786;2023-02-28T03:25:21;5.80;99.90
5392;DHT22;2719;53.624;9.786;2023-02-28T03:27:54;5.80;99.90
5392;DHT22;2719;53.624;9.786;2023-02-28T03:30:26;5.70;99.90
5392;DHT22;2719;53.624;9.786;2023-02-28T03:32:59;5.60;99.90
5392;DHT22;2719;53.624;9.786;2023-02-28T03:35:34;5.60;99.90
5392;DHT22;2719;53.624;9.786;2023-02-28T03:38:07;5.50;99.90
5392;DHT22;2719;53.624;9.786;2023-02-28T03:40:41;5.50;99.90
5392;DHT22;2719;53.624;9.786;2023-02-28T03:43:12;5.50;99.90
5392;DHT22;2719;53.624;9.786;2023-02-28T03:45:40;5.50;99.90
5392;DHT22;2719;53.624;9.786;2023-02-28T03:48:11;5.50;99.90
5392;DHT22;2719;53.624;9.786;2023-02-28T03:50:43;5.40;99.90
5392;DHT22;2719;53.624;9.786;2023-02-28T03:53:13;5.40;99.90
5392;DHT22;2719;53.624;9.786;2023-02-28T03:55:45;5.40;99.90
5392;DHT22;2719;53.624;9.786;2023-02-28T03:58:17;5.40;99.90
5392;DHT22;2719;53.624;9.786;2023-02-28T04:00:50;5.40;99.90
5392;DHT22;2719;53.624;9.786;2023-02-28T04:03:19;5.30;99.90
5392;DHT22;2719;53.624;9.786;2023-02-28T04:05:52;5.30;99.90
5392;DHT22;2719;53.624;9.786;2023-02-28T04:08:20;5.30;99.90
5392;DHT22;2719;53.624;9.786;2023-02-28T04:10:52;5.30;99.90
5392;DHT22;2719;53.624;9.786;2023-02-28T04:13:19;5.30;99.90
5392;DHT22;2719;53.624;9.786;2023-02-28T04:15:46;5.30;99.90
5392;DHT22;2719;53.624;9.786;2023-02-28T04:18:13;5.30;99.90
5392;DHT22;2719;53.624;9.786;2023-02-28T04:20:39;5.30;99.90
5392;DHT22;2719;53.624;9.786;2023-02-28T04:23:07;5.30;99.90
5392;DHT22;2719;53.624;9.786;2023-02-28T04:25:34;5.20;99.90
5392;DHT22;2719;53.624;9.786;2023-02-28T04:28:00;5.20;99.90
5392;DHT22;2719;53.624;9.786;2023-02-28T04:30:27;5.20;99.90
5392;DHT22;2719;53.624;9.786;2023-02-28T04:32:55;5.20;99.90
5392;DHT22;2719;53.624;9.786;2023-02-28T04:35:21;5.10;99.90
5392;DHT22;2719;53.624;9.786;2023-02-28T04:37:48;5.10;99.90
5392;DHT22;2719;53.624;9.786;2023-02-28T04:40:16;5.10;99.90
5392;DHT22;2719;53.624;9.786;2023-02-28T04:42:43;5.10;99.90
5392;DHT22;2719;53.624;9.786;2023-02-28T04:45:10;5.10;99.90
5392;DHT22;2719;53.624;9.786;2023-02-28T04:47:36;5.00;99.90
5392;DHT22;2719;53.624;9.786;2023-02-28T04:50:04;5.00;99.90
5392;DHT22;2719;53.624;9.786;2023-02-28T04:52:30;4.90;99.90
5392;DHT22;2719;53.624;9.786;2023-02-28T04:54:57;4.90;99.90
5392;DHT22;2719;53.624;9.786;2023-02-28T04:57:25;4.90;99.90
5392;DHT22;2719;53.624;9.786;2023-02-28T04:59:52;4.90;99.90
5392;DHT22;2719;53.624;9.786;2023-02-28T05:02:18;4.80;99.90
5392;DHT22;2719;53.624;9.786;2023-02-28T05:04:46;4.80;99.90
5392;DHT22;2719;53.624;9.786;2023-02-28T05:07:13;4.80;99.90
5392;DHT22;2719;53.624;9.786;2023-02-28T05:09:39;4.70;99.90
5392;DHT22;2719;53.624;9.786;2023-02-28T05:12:06;4.70;99.90
5392;DHT22;2719;53.624;9.786;2023-02-28T05:14:34;4.70;99.90
5392;DHT22;2719;53.624;9.786;2023-02-28T05:17:01;4.70;99.90
5392;DHT22;2719;53.624;9.786;2023-02-28T05:19:28;4.60;99.90
5392;DHT22;2719;53.624;9.786;2023-02-28T05:21:55;4.50;99.90
5392;DHT22;2719;53.624;9.786;2023-02-28T05:24:22;4.50;99.90
5392;DHT22;2719;53.624;9.786;2023-02-28T05:26:50;4.50;99.90
5392;DHT22;2719;53.624;9.786;2023-02-28T05:29:17;4.40;99.90
5392;DHT22;2719;53.624;9.786;2023-02-28T05:31:46;4.40;99.90
5392;DHT22;2719;53.624;9.786;2023-02-28T05:34:12;4.40;99.90
5392;DHT22;2719;53.624;9.786;2023-02-28T05:36:41;4.40;99.90
5392;DHT22;2719;53.624;9.786;2023-02-28T05:39:08;4.40;99.90
5392;DHT22;2719;53.624;9.786;2023-02-28T05:41:39;4.40;99.90
5392;DHT22;2719;53.624;9.786;2023-02-28T05:44:05;4.40;99.90
5392;DHT22;2719;53.624;9.786;2023-02-28T05:46:32;4.40;99.90
5392;DHT22;2719;53.624;9.786;2023-02-28T05:49:00;4.30;99.90
5392;DHT22;2719;53.624;9.786;2023-02-28T05:51:27;4.30;99.90
5392;DHT22;2719;53.624;9.786;2023-02-28T05:53:53;4.20;99.90
5392;DHT22;2719;53.624;9.786;2023-02-28T05:56:20;4.20;99.90
5392;DHT22;2719;53.624;9.786;2023-02-28T05:58:47;4.20;99.90
5392;DHT22;2719;53.624;9.786;2023-02-28T06:01:23;4.20;99.90
5392;DHT22;2719;53.624;9.786;2023-02-28T06:03:50;4.10;99.90
5392;DHT22;2719;53.624;9.786;2023-02-28T06:06:18;4.10;99.90
5392;DHT22;2719;53.624;9.786;2023-02-28T06:08:45;4.10;99.90
5392;DHT22;2719;53.624;9.786;2023-02-28T06:11:12;4.10;99.90
5392;DHT22;2719;53.624;9.786;2023-02-28T06:13:39;4.10;99.90
5392;DHT22;2719;53.624;9.786;2023-02-28T06:16:06;4.10;99.90
5392;DHT22;2719;53.624;9.786;2023-02-28T06:18:33;4.00;99.90
5392;DHT22;2719;53.624;9.786;2023-02-28T06:20:59;4.00;99.90
5392;DHT22;2719;53.624;9.786;2023-02-28T06:23:27;4.00;99.90
5392;DHT22;2719;53.624;9.786;2023-02-28T06:25:54;3.90;99.90
5392;DHT22;2719;53.624;9.786;2023-02-28T06:28:23;3.90;99.90
5392;DHT22;2719;53.624;9.786;2023-02-28T06:30:50;3.90;99.90
5392;DHT22;2719;53.624;9.786;2023-02-28T06:33:17;3.90;99.90
5392;DHT22;2719;53.624;9.786;2023-02-28T06:35:44;3.90;99.90
5392;DHT22;2719;53.624;9.786;2023-02-28T06:38:12;3.80;99.90
5392;DHT22;2719;53.624;9.786;2023-02-28T06:40:40;3.80;99.90
5392;DHT22;2719;53.624;9.786;2023-02-28T06:43:07;3.80;99.90
5392;DHT22;2719;53.624;9.786;2023-02-28T06:45:33;3.80;99.90
5392;DHT22;2719;53.624;9.786;2023-02-28T06:48:00;3.80;99.90
5392;DHT22;2719;53.624;9.786;2023-02-28T06:50:26;3.70;99.90
5392;DHT22;2719;53.624;9.786;2023-02-28T06:52:54;3.60;99.90
5392;DHT22;2719;53.624;9.786;2023-02-28T06:55:21;3.60;99.90
5392;DHT22;2719;53.624;9.786;2023-02-28T06:57:49;3.60;99.90
5392;DHT22;2719;53.624;9.786;2023-02-28T07:00:17;3.50;99.90
5392;DHT22;2719;53.624;9.786;2023-02-28T07:02:44;3.50;99.90
5392;DHT22;2719;53.624;9.786;2023-02-28T07:05:11;3.50;99.90
5392;DHT22;2719;53.624;9.786;2023-02-28T07:07:37;3.50;99.90
5392;DHT22;2719;53.624;9.786;2023-02-28T07:10:09;3.40;99.90
5392;DHT22;2719;53.624;9.786;2023-02-28T07:12:36;3.50;99.90
5392;DHT22;2719;53.624;9.786;2023-02-28T07:15:05;3.50;99.90
5392;DHT22;2719;53.624;9.786;2023-02-28T07:17:32;3.40;99.90
5392;DHT22;2719;53.624;9.786;2023-02-28T07:19:59;3.40;99.90
5392;DHT22;2719;53.624;9.786;2023-02-28T07:22:25;3.50;99.90
5392;DHT22;2719;53.624;9.786;2023-02-28T07:24:53;3.50;99.90
5392;DHT22;2719;53.624;9.786;2023-02-28T07:27:20;3.50;99.90
5392;DHT22;2719;53.624;9.786;2023-02-28T07:29:51;3.50;99.90
5392;DHT22;2719;53.624;9.786;2023-02-28T07:32:19;3.60;99.90
5392;DHT22;2719;53.624;9.786;2023-02-28T07:34:46;3.70;99.90
5392;DHT22;2719;53.624;9.786;2023-02-28T07:37:13;3.80;99.90
5392;DHT22;2719;53.624;9.786;2023-02-28T07:39:41;3.90;99.90
5392;DHT22;2719;53.624;9.786;2023-02-28T07:42:08;4.00;99.90
5392;DHT22;2719;53.624;9.786;2023-02-28T07:44:37;4.00;99.90
5392;DHT22;2719;53.624;9.786;2023-02-28T07:47:06;4.10;99.90
5392;DHT22;2719;53.624;9.786;2023-02-28T07:49:35;4.10;99.90
5392;DHT22;2719;53.624;9.786;2023-02-28T07:52:02;4.30;99.90
5392;DHT22;2719;53.624;9.786;2023-02-28T07:54:29;4.40;99.90
5392;DHT22;2719;53.624;9.786;2023-02-28T07:56:55;4.50;99.90
5392;DHT22;2719;53.624;9.786;2023-02-28T07:59:22;4.60;99.90
5392;DHT22;2719;53.624;9.786;2023-02-28T08:01:49;4.60;99.90
5392;DHT22;2719;53.624;9.786;2023-02-28T08:04:15;4.60;99.90
5392;DHT22;2719;53.624;9.786;2023-02-28T08:06:44;4.70;99.90
5392;DHT22;2719;53.624;9.786;2023-02-28T08:09:11;4.80;99.90
5392;DHT22;2719;53.624;9.786;2023-02-28T08:11:37;4.90;99.90
5392;DHT22;2719;53.624;9.786;2023-02-28T08:14:04;5.00;99.90
5392;DHT22;2719;53.624;9.786;2023-02-28T08:16:31;5.10;99.90
5392;DHT22;2719;53.624;9.786;2023-02-28T08:18:57;5.20;99.90
5392;DHT22;2719;53.624;9.786;2023-02-28T08:21:24;5.20;99.90
5392;DHT22;2719;53.624;9.786;2023-02-28T08:23:52;5.20;99.90
5392;DHT22;2719;53.624;9.786;2023-02-28T08:26:19;5.30;99.90
5392;DHT22;2719;53.624;9.786;2023-02-28T08:28:46;5.30;99.90
5392;DHT22;2719;53.624;9.786;2023-02-28T08:31:15;5.30;99.90
5392;DHT22;2719;53.624;9.786;2023-02-28T08:33:42;5.40;99.90
5392;DHT22;2719;53.624;9.786;2023-02-28T08:36:10;5.30;99.90
5392;DHT22;2719;53.624;9.786;2023-02-28T08:38:37;5.40;99.90
5392;DHT22;2719;53.624;9.786;2023-02-28T08:41:08;5.30;99.90
5392;DHT22;2719;53.624;9.786;2023-02-28T08:43:36;5.20;99.90
5392;DHT22;2719;53.624;9.786;2023-02-28T08:46:04;5.20;99.90
5392;DHT22;2719;53.624;9.786;2023-02-28T08:48:32;5.20;99.90
5392;DHT22;2719;53.624;9.786;2023-02-28T08:51:03;5.20;99.90
5392;DHT22;2719;53.624;9.786;2023-02-28T08:53:29;5.10;99.90
5392;DHT22;2719;53.624;9.786;2023-02-28T08:55:58;5.20;99.90
5392;DHT22;2719;53.624;9.786;2023-02-28T08:58:26;5.30;99.90
5392;DHT22;2719;53.624;9.786;2023-02-28T09:00:53;5.30;99.90
5392;DHT22;2719;53.624;9.786;2023-02-28T09:03:21;5.20;99.90
5392;DHT22;2719;53.624;9.786;2023-02-28T09:05:55;5.30;99.90
5392;DHT22;2719;53.624;9.786;2023-02-28T09:08:23;5.40;99.90
5392;DHT22;2719;53.624;9.786;2023-02-28T09:10:49;5.40;99.90
5392;DHT22;2719;53.624;9.786;2023-02-28T09:13:16;5.60;99.90
5392;DHT22;2719;53.624;9.786;2023-02-28T09:15:44;5.60;99.90
5392;DHT22;2719;53.624;9.786;2023-02-28T09:18:11;5.60;99.90
5392;DHT22;2719;53.624;9.786;2023-02-28T09:20:39;5.60;99.90
5392;DHT22;2719;53.624;9.786;2023-02-28T09:23:06;5.70;99.90
5392;DHT22;2719;53.624;9.786;2023-02-28T09:25:33;5.70;99.70
5392;DHT22;2719;53.624;9.786;2023-02-28T09:28:00;5.80;99.20
5392;DHT22;2719;53.624;9.786;2023-02-28T09:30:27;5.90;99.80
5392;DHT22;2719;53.624;9.786;2023-02-28T09:32:55;6.10;98.60
5392;DHT22;2719;53.624;9.786;2023-02-28T09:35:23;6.00;98.80
5392;DHT22;2719;53.624;9.786;2023-02-28T09:37:51;6.20;97.80
5392;DHT22;2719;53.624;9.786;2023-02-28T09:40:19;6.40;98.30
5392;DHT22;2719;53.624;9.786;2023-02-28T09:42:48;6.60;97.90
5392;DHT22;2719;53.624;9.786;2023-02-28T09:45:22;6.70;98.00
5392;DHT22;2719;53.624;9.786;2023-02-28T09:47:52;6.90;98.20
5392;DHT22;2719;53.624;9.786;2023-02-28T09:50:30;7.10;97.30
5392;DHT22;2719;53.624;9.786;2023-02-28T09:52:59;7.10;96.60
5392;DHT22;2719;53.624;9.786;2023-02-28T09:55:30;7.20;95.90
5392;DHT22;2719;53.624;9.786;2023-02-28T09:57:57;7.40;95.50
5392;DHT22;2719;53.624;9.786;2023-02-28T10:00:30;7.50;96.60
5392;DHT22;2719;53.624;9.786;2023-02-28T10:03:11;7.70;96.60
5392;DHT22;2719;53.624;9.786;2023-02-28T10:05:50;7.70;95.50
5392;DHT22;2719;53.624;9.786;2023-02-28T10:08:23;7.70;98.80
5392;DHT22;2719;53.624;9.786;2023-02-28T10:10:54;7.80;96.00
5392;DHT22;2719;53.624;9.786;2023-02-28T10:13:25;7.70;95.80
5392;DHT22;2719;53.624;9.786;2023-02-28T10:15:55;7.80;95.90
5392;DHT22;2719;53.624;9.786;2023-02-28T10:18:26;7.80;95.70
5392;DHT22;2719;53.624;9.786;2023-02-28T10:20:55;8.00;96.00
5392;DHT22;2719;53.624;9.786;2023-02-28T10:23:26;8.10;96.10
5392;DHT22;2719;53.624;9.786;2023-02-28T10:25:57;8.30;95.70
5392;DHT22;2719;53.624;9.786;2023-02-28T10:28:25;8.40;94.90
5392;DHT22;2719;53.624;9.786;2023-02-28T10:30:53;8.50;95.50
5392;DHT22;2719;53.624;9.786;2023-02-28T10:33:23;8.70;94.90
5392;DHT22;2719;53.624;9.786;2023-02-28T10:35:50;8.80;94.20
5392;DHT22;2719;53.624;9.786;2023-02-28T10:38:21;8.90;93.80
5392;DHT22;2719;53.624;9.786;2023-02-28T10:40:48;8.90;94.10
5392;DHT22;2719;53.624;9.786;2023-02-28T10:43:20;9.10;93.80
5392;DHT22;2719;53.624;9.786;2023-02-28T10:45:57;9.10;93.20
5392;DHT22;2719;53.624;9.786;2023-02-28T10:48:33;9.30;92.80
5392;DHT22;2719;53.624;9.786;2023-02-28T10:51:02;9.40;92.80
5392;DHT22;2719;53.624;9.786;2023-02-28T10:53:34;9.50;93.10
5392;DHT22;2719;53.624;9.786;2023-02-28T10:56:03;9.50;93.50
5392;DHT22;2719;53.624;9.786;2023-02-28T10:58:46;9.30;93.20
5392;DHT22;2719;53.624;9.786;2023-02-28T11:01:15;9.40;93.00
5392;DHT22;2719;53.624;9.786;2023-02-28T11:03:42;9.60;93.00
5392;DHT22;2719;53.624;9.786;2023-02-28T11:06:14;9.90;93.20
5392;DHT22;2719;53.624;9.786;2023-02-28T11:08:48;10.10;92.70
5392;DHT22;2719;53.624;9.786;2023-02-28T11:11:16;10.20;92.90
5392;DHT22;2719;53.624;9.786;2023-02-28T11:13:44;10.30;92.50
5392;DHT22;2719;53.624;9.786;2023-02-28T11:16:13;10.30;92.20
5392;DHT22;2719;53.624;9.786;2023-02-28T11:18:44;10.40;92.50
5392;DHT22;2719;53.624;9.786;2023-02-28T11:21:18;10.60;92.00
5392;DHT22;2719;53.624;9.786;2023-02-28T11:23:46;10.70;91.60
5392;DHT22;2719;53.624;9.786;2023-02-28T11:26:15;10.90;92.10
5392;DHT22;2719;53.624;9.786;2023-02-28T11:28:42;11.10;92.50
5392;DHT22;2719;53.624;9.786;2023-02-28T11:31:17;11.10;93.30
5392;DHT22;2719;53.624;9.786;2023-02-28T11:33:47;11.10;91.20
5392;DHT22;2719;53.624;9.786;2023-02-28T11:36:18;11.20;91.10
5392;DHT22;2719;53.624;9.786;2023-02-28T11:38:48;11.20;90.80
5392;DHT22;2719;53.624;9.786;2023-02-28T11:41:45;11.20;90.30
5392;DHT22;2719;53.624;9.786;2023-02-28T11:44:23;11.30;90.70
5392;DHT22;2719;53.624;9.786;2023-02-28T11:46:55;11.40;91.00
5392;DHT22;2719;53.624;9.786;2023-02-28T11:49:37;11.40;90.60
5392;DHT22;2719;53.624;9.786;2023-02-28T11:52:19;11.60;90.10
5392;DHT22;2719;53.624;9.786;2023-02-28T11:55:08;11.60;89.70
5392;DHT22;2719;53.624;9.786;2023-02-28T11:58:04;11.40;89.10
5392;DHT22;2719;53.624;9.786;2023-02-28T12:00:45;11.60;90.20
5392;DHT22;2719;53.624;9.786;2023-02-28T12:03:26;11.70;90.30
5392;DHT22;2719;53.624;9.786;2023-02-28T12:06:00;11.80;89.60
5392;DHT22;2719;53.624;9.786;2023-02-28T12:08:47;11.90;88.90
5392;DHT22;2719;53.624;9.786;2023-02-28T12:11:29;12.00;90.10
5392;DHT22;2719;53.624;9.786;2023-02-28T12:17:04;11.70;90.40
5392;DHT22;2719;53.624;9.786;2023-02-28T12:19:41;11.70;89.10
5392;DHT22;2719;53.624;9.786;2023-02-28T12:22:28;11.80;87.50
5392;DHT22;2719;53.624;9.786;2023-02-28T12:27:59;12.00;88.10
5392;DHT22;2719;53.624;9.786;2023-02-28T12:30:28;12.00;86.70
5392;DHT22;2719;53.624;9.786;2023-02-28T12:33:00;12.10;87.50
5392;DHT22;2719;53.624;9.786;2023-02-28T12:35:34;12.10;85.90
5392;DHT22;2719;53.624;9.786;2023-02-28T12:38:06;12.20;86.40
5392;DHT22;2719;53.624;9.786;2023-02-28T12:40:43;12.30;88.50
5392;DHT22;2719;53.624;9.786;2023-02-28T12:43:15;12.10;88.70
5392;DHT22;2719;53.624;9.786;2023-02-28T12:45:45;12.20;87.30
5392;DHT22;2719;53.624;9.786;2023-02-28T12:48:16;12.40;88.40
5392;DHT22;2719;53.624;9.786;2023-02-28T12:50:45;12.40;85.80
5392;DHT22;2719;53.624;9.786;2023-02-28T12:53:17;12.40;83.40
5392;DHT22;2719;53.624;9.786;2023-02-28T12:55:48;12.20;83.60
5392;DHT22;2719;53.624;9.786;2023-02-28T12:58:22;12.00;83.10
5392;DHT22;2719;53.624;9.786;2023-02-28T13:01:13;12.10;85.40
5392;DHT22;2719;53.624;9.786;2023-02-28T13:04:05;12.20;83.90
5392;DHT22;2719;53.624;9.786;2023-02-28T13:06:45;12.30;83.40
5392;DHT22;2719;53.624;9.786;2023-02-28T13:09:16;12.40;83.80
5392;DHT22;2719;53.624;9.786;2023-02-28T13:11:45;12.30;82.50
5392;DHT22;2719;53.624;9.786;2023-02-28T13:14:24;12.40;81.50
5392;DHT22;2719;53.624;9.786;2023-02-28T13:17:02;12.50;79.40
5392;DHT22;2719;53.624;9.786;2023-02-28T13:19:31;12.50;78.10
5392;DHT22;2719;53.624;9.786;2023-02-28T13:21:58;12.60;76.90
5392;DHT22;2719;53.624;9.786;2023-02-28T13:24:45;12.80;77.20
5392;DHT22;2719;53.624;9.786;2023-02-28T13:27:33;12.80;75.60
5392;DHT22;2719;53.624;9.786;2023-02-28T13:33:25;12.80;83.50
5392;DHT22;2719;53.624;9.786;2023-02-28T13:36:10;12.60;82.20
5392;DHT22;2719;53.624;9.786;2023-02-28T13:38:40;12.40;82.80
5392;DHT22;2719;53.624;9.786;2023-02-28T13:44:08;12.00;82.30
5392;DHT22;2719;53.624;9.786;2023-02-28T13:49:42;12.30;80.90
5392;DHT22;2719;53.624;9.786;2023-02-28T13:52:15;12.30;80.90
5392;DHT22;2719;53.624;9.786;2023-02-28T13:55:01;12.40;82.30
5392;DHT22;2719;53.624;9.786;2023-02-28T13:57:40;12.40;80.90
5392;DHT22;2719;53.624;9.786;2023-02-28T14:00:22;12.50;80.20
5392;DHT22;2719;53.624;9.786;2023-02-28T14:03:05;12.70;81.80
5392;DHT22;2719;53.624;9.786;2023-02-28T14:05:34;12.70;83.30
5392;DHT22;2719;53.624;9.786;2023-02-28T14:08:05;12.60;80.50
5392;DHT22;2719;53.624;9.786;2023-02-28T14:10:36;12.80;80.50
5392;DHT22;2719;53.624;9.786;2023-02-28T14:13:13;13.00;81.40
5392;DHT22;2719;53.624;9.786;2023-02-28T14:15:44;12.90;79.90
5392;DHT22;2719;53.624;9.786;2023-02-28T14:18:23;12.80;79.90
5392;DHT22;2719;53.624;9.786;2023-02-28T14:20:55;12.90;78.90
5392;DHT22;2719;53.624;9.786;2023-02-28T14:23:38;12.90;81.10
5392;DHT22;2719;53.624;9.786;2023-02-28T14:26:18;13.00;76.80
5392;DHT22;2719;53.624;9.786;2023-02-28T14:28:59;13.00;75.90
5392;DHT22;2719;53.624;9.786;2023-02-28T14:31:32;13.00;74.80
5392;DHT22;2719;53.624;9.786;2023-02-28T14:34:13;12.90;74.80
5392;DHT22;2719;53.624;9.786;2023-02-28T14:36:44;12.90;74.10
5392;DHT22;2719;53.624;9.786;2023-02-28T14:39:13;12.70;76.80
5392;DHT22;2719;53.624;9.786;2023-02-28T14:41:41;12.70;75.40
5392;DHT22;2719;53.624;9.786;2023-02-28T14:44:17;12.80;77.20
5392;DHT22;2719;53.624;9.786;2023-02-28T14:46:45;12.80;74.60
5392;DHT22;2719;53.624;9.786;2023-02-28T14:49:18;12.80;74.70
5392;DHT22;2719;53.624;9.786;2023-02-28T14:51:46;12.80;74.90
5392;DHT22;2719;53.624;9.786;2023-02-28T14:54:15;12.80;75.00
5392;DHT22;2719;53.624;9.786;2023-02-28T14:56:42;12.80;73.70
5392;DHT22;2719;53.624;9.786;2023-02-28T14:59:25;12.70;75.70
5392;DHT22;2719;53.624;9.786;2023-02-28T15:01:52;12.60;76.20
5392;DHT22;2719;53.624;9.786;2023-02-28T15:04:34;12.60;74.70
5392;DHT22;2719;53.624;9.786;2023-02-28T15:07:08;12.50;76.10
5392;DHT22;2719;53.624;9.786;2023-02-28T15:09:35;12.40;76.40
5392;DHT22;2719;53.624;9.786;2023-02-28T15:12:02;12.50;76.90
5392;DHT22;2719;53.624;9.786;2023-02-28T15:14:29;12.50;76.10
5392;DHT22;2719;53.624;9.786;2023-02-28T15:16:59;12.60;75.70
5392;DHT22;2719;53.624;9.786;2023-02-28T15:19:29;12.60;75.20
5392;DHT22;2719;53.624;9.786;2023-02-28T15:22:01;12.80;75.70
5392;DHT22;2719;53.624;9.786;2023-02-28T15:24:36;12.60;74.00
5392;DHT22;2719;53.624;9.786;2023-02-28T15:27:06;12.70;76.20
5392;DHT22;2719;53.624;9.786;2023-02-28T15:29:41;12.80;76.70
5392;DHT22;2719;53.624;9.786;2023-02-28T15:32:21;12.80;77.30
5392;DHT22;2719;53.624;9.786;2023-02-28T15:34:50;12.70;76.60
5392;DHT22;2719;53.624;9.786;2023-02-28T15:37:38;12.60;77.30
5392;DHT22;2719;53.624;9.786;2023-02-28T15:40:13;12.60;77.70
5392;DHT22;2719;53.624;9.786;2023-02-28T15:42:40;12.50;78.70
5392;DHT22;2719;53.624;9.786;2023-02-28T15:45:27;12.50;77.00
5392;DHT22;2719;53.624;9.786;2023-02-28T15:47:54;12.50;78.10
5392;DHT22;2719;53.624;9.786;2023-02-28T15:50:21;12.50;78.20
5392;DHT22;2719;53.624;9.786;2023-02-28T15:52:49;12.50;77.90
5392;DHT22;2719;53.624;9.786;2023-02-28T15:55:19;12.40;77.40
5392;DHT22;2719;53.624;9.786;2023-02-28T15:57:49;12.40;78.90
5392;DHT22;2719;53.624;9.786;2023-02-28T16:00:21;12.30;80.10
5392;DHT22;2719;53.624;9.786;2023-02-28T16:02:48;12.30;79.80
5392;DHT22;2719;53.624;9.786;2023-02-28T16:05:21;12.20;78.10
5392;DHT22;2719;53.624;9.786;2023-02-28T16:07:55;12.20;79.40
5392;DHT22;2719;53.624;9.786;2023-02-28T16:10:24;12.10;79.10
5392;DHT22;2719;53.624;9.786;2023-02-28T16:12:53;12.00;80.00
5392;DHT22;2719;53.624;9.786;2023-02-28T16:15:22;12.00;80.70
5392;DHT22;2719;53.624;9.786;2023-02-28T16:17:50;11.90;81.40
5392;DHT22;2719;53.624;9.786;2023-02-28T16:20:18;11.80;81.70
5392;DHT22;2719;53.624;9.786;2023-02-28T16:22:46;11.80;81.20
5392;DHT22;2719;53.624;9.786;2023-02-28T16:25:15;11.70;81.80
5392;DHT22;2719;53.624;9.786;2023-02-28T16:27:44;11.70;82.50
5392;DHT22;2719;53.624;9.786;2023-02-28T16:30:18;11.60;83.80
5392;DHT22;2719;53.624;9.786;2023-02-28T16:32:45;11.50;81.50
5392;DHT22;2719;53.624;9.786;2023-02-28T16:35:12;11.20;80.80
5392;DHT22;2719;53.624;9.786;2023-02-28T16:37:39;11.20;81.70
5392;DHT22;2719;53.624;9.786;2023-02-28T16:40:09;11.00;82.60
5392;DHT22;2719;53.624;9.786;2023-02-28T16:42:40;10.90;82.20
5392;DHT22;2719;53.624;9.786;2023-02-28T16:45:15;10.80;82.10
5392;DHT22;2719;53.624;9.786;2023-02-28T16:47:42;10.70;82.60
5392;DHT22;2719;53.624;9.786;2023-02-28T16:50:13;10.50;82.70
5392;DHT22;2719;53.624;9.786;2023-02-28T16:52:41;10.50;83.30
5392;DHT22;2719;53.624;9.786;2023-02-28T16:55:08;10.30;85.20